Time;durP1;ratioP1;P1;durP2;ratioP2;P2;SDS_P1;SDS_P2;PMS_P1;PMS_P2;Temp;Humidity;BMP_temperature;BMP_pressure;BME280_temperature;BME280_humidity;BME280_pressure;Samples;Min_cycle;Max_cycle;Signal;HPM_P1;HPM_P2
2022/06/03 00:02:08;;;;;;;2.70;2.35;;;15.70;99.90;;;;;;5025722;28;20398;-80
2022/06/03 00:04:53;;;;;;;2.60;2.40;;;15.70;99.90;;;;;;5036126;23;20100;-82
2022/06/03 00:08:05;;;;;;;2.72;2.53;;;15.60;99.90;;;;;;5050603;28;20051;-80
2022/06/03 00:10:53;;;;;;;2.15;2.05;;;15.60;99.90;;;;;;4954527;28;20375;-81
2022/06/03 00:13:46;;;;;;;2.20;2.05;;;15.50;99.90;;;;;;5027402;28;20018;-80
2022/06/03 00:16:27;;;;;;;2.53;2.33;;;15.50;99.90;;;;;;5024341;28;20362;-82
2022/06/03 00:19:11;;;;;;;3.08;2.85;;;15.50;99.90;;;;;;5027933;28;20406;-80
2022/06/03 00:22:06;;;;;;;2.80;2.60;;;15.50;99.90;;;;;;5041126;28;20056;-79
2022/06/03 00:24:46;;;;;;;3.03;2.83;;;15.50;99.90;;;;;;5030400;28;20026;-81
2022/06/03 00:27:46;;;;;;;3.35;3.10;;;15.50;99.90;;;;;;5030053;28;20026;-82
2022/06/03 00:30:24;;;;;;;3.38;2.80;;;15.40;99.90;;;;;;5045609;28;20062;-81
2022/06/03 00:33:33;;;;;;;2.47;2.08;;;15.40;99.90;;;;;;5029983;28;20026;-81
2022/06/03 00:36:36;;;;;;;3.10;2.78;;;15.40;99.90;;;;;;5028545;28;20060;-80
2022/06/03 00:39:42;;;;;;;3.67;3.30;;;15.30;99.90;;;;;;5050115;28;20102;-82
2022/06/03 00:42:42;;;;;;;2.80;2.50;;;15.30;99.90;;;;;;5005762;28;20069;-81
2022/06/03 00:45:32;;;;;;;2.78;2.58;;;15.30;99.90;;;;;;5022604;28;20038;-81
2022/06/03 00:48:00;;;;;;;2.92;2.72;;;15.30;99.90;;;;;;5022056;28;20060;-81
2022/06/03 00:50:54;;;;;;;2.63;2.42;;;15.20;99.90;;;;;;5005677;28;20026;-82
2022/06/03 00:53:50;;;;;;;2.80;2.60;;;15.20;99.90;;;;;;5045846;28;20045;-79
2022/06/03 00:56:53;;;;;;;2.60;2.40;;;15.20;99.90;;;;;;5052388;28;20025;-79
2022/06/03 00:59:48;;;;;;;2.50;2.30;;;15.20;99.90;;;;;;5034329;28;20025;-80
2022/06/03 01:02:19;;;;;;;2.38;2.28;;;15.10;99.90;;;;;;5051640;28;20025;-80
2022/06/03 01:05:10;;;;;;;2.90;2.67;;;15.10;99.90;;;;;;5061090;28;20025;-81
2022/06/03 01:08:36;;;;;;;2.97;2.78;;;15.00;99.90;;;;;;5066321;28;20044;-79
2022/06/03 01:11:04;;;;;;;3.03;2.72;;;15.00;99.90;;;;;;4991853;28;20178;-80
2022/06/03 01:13:48;;;;;;;3.13;2.85;;;15.00;99.90;;;;;;4973581;28;20574;-80
2022/06/03 01:16:44;;;;;;;3.45;3.15;;;15.00;99.90;;;;;;5011183;28;20049;-81
2022/06/03 01:19:20;;;;;;;3.60;2.63;;;15.00;99.90;;;;;;5052410;28;20081;-80
2022/06/03 01:21:46;;;;;;;3.08;2.88;;;15.00;99.90;;;;;;5056905;28;20018;-79
2022/06/03 01:24:11;;;;;;;3.10;2.90;;;15.00;99.90;;;;;;5046779;28;20091;-80
2022/06/03 01:26:56;;;;;;;3.38;3.08;;;15.00;99.90;;;;;;5051536;28;20446;-79
2022/06/03 01:29:49;;;;;;;3.40;3.10;;;15.00;99.90;;;;;;5051940;28;20045;-80
2022/06/03 01:32:33;;;;;;;3.10;2.55;;;15.00;99.90;;;;;;5051451;28;20022;-80
2022/06/03 01:35:26;;;;;;;2.90;2.70;;;14.90;99.90;;;;;;5057735;28;20016;-80
2022/06/03 01:38:32;;;;;;;4.45;2.95;;;14.90;99.90;;;;;;5057639;28;20060;-80
2022/06/03 01:41:17;;;;;;;3.10;2.80;;;14.80;99.90;;;;;;5043735;28;20029;-79
2022/06/03 01:43:53;;;;;;;3.20;3.00;;;14.80;99.90;;;;;;5058348;28;20067;-81
2022/06/03 01:46:28;;;;;;;3.63;3.03;;;14.80;99.90;;;;;;5015100;28;20033;-81
2022/06/03 01:48:57;;;;;;;3.13;2.92;;;14.80;99.90;;;;;;5030218;28;20048;-81
2022/06/03 01:51:38;;;;;;;3.42;3.20;;;14.80;99.90;;;;;;5030422;28;20037;-82
2022/06/03 01:54:33;;;;;;;3.45;3.15;;;14.80;99.90;;;;;;5022843;28;20073;-81
2022/06/03 01:57:43;;;;;;;3.85;3.55;;;14.80;99.90;;;;;;5032642;28;20278;-81
2022/06/03 02:00:34;;;;;;;4.40;3.90;;;14.80;99.90;;;;;;5051333;28;20395;-80
2022/06/03 02:03:34;;;;;;;5.03;3.92;;;14.90;99.90;;;;;;5049708;28;20017;-81
2022/06/03 02:06:44;;;;;;;4.53;4.13;;;14.90;99.90;;;;;;5058433;28;20041;-81
2022/06/03 02:09:36;;;;;;;3.50;3.20;;;14.80;99.90;;;;;;5070467;28;20028;-81
2022/06/03 02:12:23;;;;;;;3.53;3.22;;;14.70;99.90;;;;;;5059066;28;20038;-81
2022/06/03 02:15:23;;;;;;;3.53;3.22;;;14.70;99.90;;;;;;5030676;28;20033;-79
2022/06/03 02:18:17;;;;;;;3.45;3.05;;;14.70;99.90;;;;;;5031973;28;20026;-80
2022/06/03 02:20:48;;;;;;;3.30;3.10;;;14.70;99.90;;;;;;5032945;28;20024;-81
2022/06/03 02:23:32;;;;;;;3.05;2.85;;;14.60;99.90;;;;;;5014279;28;20026;-80
2022/06/03 02:26:01;;;;;;;3.17;2.88;;;14.60;99.90;;;;;;5028577;28;20022;-79
2022/06/03 02:28:33;;;;;;;3.15;2.95;;;14.60;99.90;;;;;;5029509;28;20028;-80
2022/06/03 02:31:17;;;;;;;3.05;2.85;;;14.60;99.90;;;;;;5017142;28;20119;-80
2022/06/03 02:34:15;;;;;;;3.20;3.00;;;14.60;99.90;;;;;;5052096;28;20029;-80
2022/06/03 02:37:22;;;;;;;2.55;2.42;;;14.60;99.90;;;;;;5062882;28;20029;-80
2022/06/03 02:40:16;;;;;;;2.60;2.40;;;14.60;99.90;;;;;;5069650;28;20037;-79
2022/06/03 02:42:56;;;;;;;2.72;2.53;;;14.60;99.90;;;;;;5037301;28;20057;-80
2022/06/03 02:45:56;;;;;;;3.22;2.92;;;14.60;99.90;;;;;;5029538;28;20029;-81
2022/06/03 02:49:01;;;;;;;3.38;3.08;;;14.50;99.90;;;;;;5030415;28;20177;-80
2022/06/03 02:51:53;;;;;;;4.40;3.17;;;14.50;99.90;;;;;;5031847;28;20075;-79
2022/06/03 02:54:39;;;;;;;4.40;3.70;;;14.50;99.90;;;;;;5030529;28;20022;-80
2022/06/03 02:57:47;;;;;;;4.20;3.80;;;14.50;99.90;;;;;;5031574;28;20029;-79
2022/06/03 03:00:28;;;;;;;3.67;3.38;;;14.50;99.90;;;;;;5019626;28;20038;-81
2022/06/03 03:03:17;;;;;;;3.95;3.65;;;14.50;99.90;;;;;;5043067;28;20025;-80
2022/06/03 03:06:03;;;;;;;3.50;3.20;;;14.40;99.90;;;;;;5068662;28;20021;-81
2022/06/03 03:09:08;;;;;;;3.72;3.42;;;14.40;99.90;;;;;;5052236;28;20366;-79
2022/06/03 03:11:56;;;;;;;4.30;3.30;;;14.40;99.90;;;;;;5030329;28;20028;-80
2022/06/03 03:14:53;;;;;;;3.08;2.88;;;14.40;99.90;;;;;;5027085;28;20467;-80
2022/06/03 03:17:37;;;;;;;3.00;2.80;;;14.40;99.90;;;;;;5024728;28;20030;-80
2022/06/03 03:20:12;;;;;;;3.30;2.75;;;14.40;99.90;;;;;;5029924;28;20044;-78
2022/06/03 03:22:59;;;;;;;3.40;3.10;;;14.40;99.90;;;;;;5032637;28;20028;-79
2022/06/03 03:25:32;;;;;;;3.58;2.97;;;14.40;99.90;;;;;;5030644;28;20033;-79
2022/06/03 03:28:21;;;;;;;3.30;3.10;;;14.40;99.90;;;;;;5029797;28;20106;-80
2022/06/03 03:31:19;;;;;;;3.92;3.63;;;14.40;99.90;;;;;;5014310;28;20022;-81
2022/06/03 03:34:17;;;;;;;4.38;3.00;;;14.40;99.90;;;;;;5052718;28;20025;-81
2022/06/03 03:37:04;;;;;;;3.63;3.15;;;14.50;99.90;;;;;;5061272;28;20059;-80
2022/06/03 03:40:07;;;;;;;3.65;3.35;;;14.40;99.90;;;;;;5035115;28;20029;-80
2022/06/03 03:43:10;;;;;;;3.65;3.38;;;14.40;99.90;;;;;;5051127;28;20038;-79
2022/06/03 03:46:08;;;;;;;3.25;2.95;;;14.50;99.90;;;;;;5051532;28;20030;-79
2022/06/03 03:48:46;;;;;;;2.60;2.40;;;14.50;99.90;;;;;;5053475;28;20076;-80
2022/06/03 03:51:32;;;;;;;2.33;2.22;;;14.50;99.90;;;;;;5035715;28;20505;-80
2022/06/03 03:54:32;;;;;;;3.15;2.95;;;14.50;99.90;;;;;;5051373;28;20026;-79
2022/06/03 03:57:12;;;;;;;2.72;2.53;;;14.60;99.90;;;;;;5053085;28;20037;-80
2022/06/03 03:59:39;;;;;;;3.40;3.10;;;14.60;99.90;;;;;;5053989;28;20096;-80
2022/06/03 04:02:26;;;;;;;4.25;3.15;;;14.60;99.90;;;;;;5052668;28;20080;-80
2022/06/03 04:05:10;;;;;;;3.60;3.30;;;14.60;99.90;;;;;;5061070;28;20045;-80
2022/06/03 04:08:07;;;;;;;4.00;3.60;;;14.60;99.90;;;;;;5071906;28;20035;-80
2022/06/03 04:10:44;;;;;;;3.15;2.92;;;14.70;99.90;;;;;;5053328;28;20025;-78
2022/06/03 04:13:27;;;;;;;4.25;3.42;;;14.70;99.90;;;;;;5052152;28;20081;-80
2022/06/03 04:16:16;;;;;;;4.20;3.80;;;14.80;99.90;;;;;;5053293;28;20051;-81
2022/06/03 04:18:54;;;;;;;4.47;3.67;;;14.90;99.90;;;;;;5045381;28;20041;-80
2022/06/03 04:22:04;;;;;;;3.83;3.53;;;15.00;99.90;;;;;;5054159;28;20033;-81
2022/06/03 04:25:00;;;;;;;3.80;3.47;;;15.00;99.90;;;;;;5046944;28;20054;-79
2022/06/03 04:27:50;;;;;;;3.92;3.33;;;15.00;99.90;;;;;;5037472;28;20036;-79
2022/06/03 04:30:49;;;;;;;3.60;3.30;;;15.00;99.90;;;;;;5019790;28;20037;-79
2022/06/03 04:33:34;;;;;;;3.88;3.42;;;15.20;99.90;;;;;;5036071;28;20024;-81
2022/06/03 04:36:21;;;;;;;3.40;3.10;;;15.20;99.90;;;;;;5053724;28;20036;-80
2022/06/03 04:39:14;;;;;;;4.10;3.70;;;15.30;99.90;;;;;;5046602;28;20037;-81
2022/06/03 04:42:06;;;;;;;3.72;3.42;;;15.50;99.90;;;;;;5037875;28;20030;-81
2022/06/03 04:44:50;;;;;;;3.72;3.40;;;15.80;99.90;;;;;;5021138;28;20062;-80
2022/06/03 04:47:28;;;;;;;2.80;2.60;;;16.10;99.90;;;;;;5004800;28;20364;-81
2022/06/03 04:50:08;;;;;;;5.22;3.45;;;16.50;99.90;;;;;;5006434;28;20026;-81
2022/06/03 04:52:59;;;;;;;3.42;3.13;;;16.70;99.90;;;;;;5022666;28;20030;-81
2022/06/03 04:56:01;;;;;;;3.10;2.80;;;16.80;99.90;;;;;;5022856;28;20025;-84
2022/06/03 04:58:56;;;;;;;3.25;2.97;;;16.90;99.90;;;;;;5020491;28;20060;-82
2022/06/03 05:01:43;;;;;;;3.63;3.33;;;17.10;99.90;;;;;;5023806;28;20046;-81
2022/06/03 05:04:39;;;;;;;2.85;2.65;;;17.40;99.90;;;;;;5033141;28;20119;-82
2022/06/03 05:07:04;;;;;;;2.80;2.60;;;17.90;99.90;;;;;;5031254;28;20021;-81
2022/06/03 05:09:46;;;;;;;2.55;2.35;;;20.50;97.60;;;;;;5060311;28;20562;-82
2022/06/03 05:12:51;;;;;;;2.35;2.15;;;23.80;90.80;;;;;;5063368;28;20487;-80
2022/06/03 05:15:49;;;;;;;2.72;2.22;;;27.00;76.00;;;;;;5073983;28;20025;-80
2022/06/03 05:18:54;;;;;;;2.13;1.95;;;28.70;63.30;;;;;;5036385;28;20026;-81
2022/06/03 05:21:44;;;;;;;1.73;1.63;;;29.00;59.10;;;;;;5021431;28;20034;-82
2022/06/03 05:24:49;;;;;;;2.00;1.80;;;28.00;57.90;;;;;;5021421;28;20057;-82
2022/06/03 05:27:41;;;;;;;1.85;1.75;;;27.00;58.80;;;;;;5020919;28;20383;-81
2022/06/03 05:30:21;;;;;;;2.03;1.83;;;25.20;62.80;;;;;;5002342;28;20475;-82
2022/06/03 05:33:11;;;;;;;2.78;2.40;;;25.90;65.00;;;;;;5021705;28;20052;-84
2022/06/03 05:35:51;;;;;;;2.50;2.35;;;27.50;59.90;;;;;;5029637;28;20086;-83
2022/06/03 05:38:40;;;;;;;2.10;2.00;;;28.10;57.70;;;;;;5003773;28;20037;-81
2022/06/03 05:44:55;;;;;;;1.95;1.85;;;30.10;54.50;;;;;;5024205;28;20025;-79
2022/06/03 05:47:31;;;;;;;1.65;1.55;;;31.70;52.10;;;;;;5034737;28;20026;-81
2022/06/03 05:50:15;;;;;;;2.95;1.60;;;33.10;49.40;;;;;;5036724;28;20030;-82
2022/06/03 05:53:07;;;;;;;1.77;1.67;;;34.30;47.60;;;;;;5040746;28;20478;-81
2022/06/03 05:55:54;;;;;;;1.67;1.58;;;35.30;45.60;;;;;;5053328;28;20116;-82
2022/06/03 05:58:46;;;;;;;2.10;1.90;;;36.10;44.20;;;;;;5053104;28;20048;-80
2022/06/03 06:01:18;;;;;;;;;;;36.60;43.50;;;;;;5038807;28;20057;-80
2022/06/03 06:03:46;;;;;;;2.05;1.70;;;36.90;42.60;;;;;;5045341;22;19909;-80
2022/06/03 06:06:43;;;;;;;1.80;1.67;;;36.90;41.60;;;;;;5038827;28;20170;-81
2022/06/03 06:09:46;;;;;;;2.17;2.08;;;35.80;42.30;;;;;;5040230;28;20095;-82
2022/06/03 06:12:39;;;;;;;4.03;2.08;;;35.70;43.30;;;;;;5042382;28;20022;-82
2022/06/03 06:15:29;;;;;;;2.20;2.10;;;35.90;42.50;;;;;;5022942;28;20037;-82
2022/06/03 06:18:14;;;;;;;1.70;1.60;;;35.80;42.60;;;;;;5008380;28;20021;-82
2022/06/03 06:20:57;;;;;;;1.77;1.67;;;36.60;41.70;;;;;;5022829;28;20073;-82
2022/06/03 06:24:06;;;;;;;1.65;1.55;;;35.10;41.70;;;;;;5022705;28;20074;-82
2022/06/03 06:26:49;;;;;;;1.50;1.50;;;32.40;45.90;;;;;;5011118;28;20029;-81
2022/06/03 06:29:36;;;;;;;1.58;1.48;;;29.60;48.20;;;;;;5022217;28;20029;-82
2022/06/03 06:32:40;;;;;;;1.60;1.50;;;27.40;52.50;;;;;;5022675;28;20026;-81
2022/06/03 06:35:39;;;;;;;1.35;1.30;;;25.60;56.20;;;;;;5038964;28;20037;-81
2022/06/03 06:38:37;;;;;;;1.27;1.27;;;24.40;59.70;;;;;;5031794;28;20458;-81
2022/06/03 06:41:16;;;;;;;1.63;1.38;;;24.10;62.60;;;;;;5053282;28;20074;-81
2022/06/03 06:43:48;;;;;;;2.42;1.65;;;25.00;61.80;;;;;;5042440;28;20504;-82
2022/06/03 06:46:28;;;;;;;2.28;2.08;;;26.70;60.20;;;;;;5045580;28;20051;-81
2022/06/03 06:49:21;;;;;;;2.50;1.95;;;28.70;54.20;;;;;;5042517;28;20013;-81
2022/06/03 06:52:05;;;;;;;4.28;1.83;;;27.40;54.60;;;;;;5028344;28;20043;-82
2022/06/03 06:55:00;;;;;;;2.00;1.90;;;26.00;57.40;;;;;;5023645;28;20021;-81
2022/06/03 06:57:51;;;;;;;2.10;1.90;;;24.60;60.90;;;;;;5009198;28;20402;-82
2022/06/03 07:00:24;;;;;;;2.80;2.08;;;23.90;64.20;;;;;;5024874;28;20029;-81
2022/06/03 07:03:04;;;;;;;2.22;2.03;;;23.50;65.70;;;;;;5024498;28;20051;-82
2022/06/03 07:05:52;;;;;;;2.03;1.92;;;23.10;67.40;;;;;;5032662;28;20465;-80
2022/06/03 07:08:38;;;;;;;4.25;2.75;;;22.80;69.00;;;;;;5051806;28;20031;-82
2022/06/03 07:11:12;;;;;;;3.20;2.90;;;22.50;69.70;;;;;;5022326;28;20052;-81
2022/06/03 07:13:49;;;;;;;4.10;2.45;;;23.90;71.30;;;;;;5045352;28;20053;-80
2022/06/03 07:19:47;;;;;;;4.07;2.58;;;26.40;63.20;;;;;;5034659;28;20048;-80
2022/06/03 07:22:19;;;;;;;3.20;2.05;;;25.10;62.20;;;;;;5044516;28;20031;-79
2022/06/03 07:25:19;;;;;;;3.53;2.33;;;24.00;65.00;;;;;;5032697;28;20022;-82
2022/06/03 07:28:00;;;;;;;3.85;2.35;;;23.10;68.00;;;;;;5044598;28;20376;-82
2022/06/03 07:30:47;;;;;;;2.47;2.10;;;22.40;71.50;;;;;;5043169;28;20025;-82
2022/06/03 07:33:15;;;;;;;2.05;1.95;;;21.90;73.40;;;;;;5042668;28;20319;-81
2022/06/03 07:35:50;;;;;;;3.90;2.63;;;21.70;74.90;;;;;;5026617;28;20026;-82
2022/06/03 07:38:40;;;;;;;2.47;1.88;;;21.70;75.70;;;;;;5063210;28;20056;-81
2022/06/03 07:41:30;;;;;;;1.45;1.45;;;21.70;76.00;;;;;;5044583;28;20055;-80
2022/06/03 07:44:08;;;;;;;2.10;1.90;;;21.80;75.90;;;;;;5030527;28;20444;-83
2022/06/03 07:47:00;;;;;;;2.78;1.55;;;21.80;75.80;;;;;;5041464;28;20389;-80
2022/06/03 07:49:27;;;;;;;;;;;21.80;76.30;;;;;;5041663;28;20034;-80
2022/06/03 07:52:35;;;;;;;3.97;1.75;;;21.80;76.60;;;;;;5042445;28;20280;-80
2022/06/03 07:55:16;;;;;;;2.75;1.92;;;21.80;76.20;;;;;;5024351;28;20474;-81
2022/06/03 07:58:03;;;;;;;4.03;1.67;;;21.90;76.00;;;;;;5041518;28;20043;-81
2022/06/03 08:00:34;;;;;;;2.10;1.92;;;22.00;75.60;;;;;;5021982;28;20025;-82
2022/06/03 08:03:02;;;;;;;1.80;1.67;;;22.00;75.50;;;;;;5025613;28;20025;-81
2022/06/03 08:05:29;;;;;;;1.95;1.85;;;22.10;75.70;;;;;;5048056;28;20044;-81
2022/06/03 08:11:01;;;;;;;2.08;1.80;;;22.40;75.80;;;;;;5056068;28;20544;-80
2022/06/03 08:13:44;;;;;;;2.00;1.80;;;22.50;76.50;;;;;;5039271;28;20037;-80
2022/06/03 08:16:23;;;;;;;3.20;1.60;;;22.50;76.90;;;;;;5057507;28;20017;-80
2022/06/03 08:18:49;;;;;;;2.80;2.50;;;22.60;76.70;;;;;;5043288;28;20026;-81
2022/06/03 08:21:38;;;;;;;2.83;2.25;;;22.70;76.70;;;;;;5039949;28;20030;-81
2022/06/03 08:24:07;;;;;;;2.17;1.98;;;22.70;76.20;;;;;;5037739;28;20032;-81
2022/06/03 08:26:34;;;;;;;3.58;2.38;;;22.60;76.90;;;;;;5048421;28;20472;-80
2022/06/03 08:29:42;;;;;;;3.03;2.42;;;22.60;77.00;;;;;;5048552;28;20026;-82
2022/06/03 08:32:16;;;;;;;2.28;1.70;;;22.90;77.20;;;;;;5012291;28;20046;-80
2022/06/03 08:34:49;;;;;;;2.17;1.98;;;23.10;75.90;;;;;;5047966;28;20079;-81
2022/06/03 08:37:23;;;;;;;2.70;1.98;;;23.30;75.90;;;;;;5052979;28;20048;-82
2022/06/03 08:39:52;;;;;;;4.35;2.83;;;23.40;75.40;;;;;;5041254;28;20501;-80
2022/06/03 08:42:39;;;;;;;4.18;1.88;;;23.50;74.40;;;;;;5042496;28;20112;-81
2022/06/03 08:45:05;;;;;;;1.65;1.55;;;23.60;74.30;;;;;;5046802;28;20033;-81
2022/06/03 08:47:38;;;;;;;2.67;1.98;;;23.60;73.50;;;;;;5046533;28;20033;-81
2022/06/03 08:50:23;;;;;;;1.90;1.70;;;23.70;73.00;;;;;;5024489;28;20032;-80
2022/06/03 08:53:41;;;;;;;4.15;2.00;;;23.90;72.10;;;;;;5039150;28;20120;-81
2022/06/03 08:56:11;;;;;;;1.88;1.77;;;24.20;71.70;;;;;;4958907;29;20039;-81
2022/06/03 08:58:49;;;;;;;1.83;1.73;;;24.40;71.00;;;;;;4960209;29;20110;-81
2022/06/03 09:01:36;;;;;;;4.00;2.08;;;24.50;70.50;;;;;;4997973;28;20044;-83
2022/06/03 09:04:08;;;;;;;2.47;2.28;;;24.60;69.90;;;;;;5026403;28;20088;-81
2022/06/03 09:06:39;;;;;;;2.13;1.85;;;24.70;68.70;;;;;;5037278;28;20022;-81
2022/06/03 09:09:13;;;;;;;7.38;2.80;;;24.60;68.40;;;;;;5046181;28;20079;-81
2022/06/03 09:11:45;;;;;;;2.17;1.95;;;24.60;68.70;;;;;;5042082;28;20028;-82
2022/06/03 09:14:19;;;;;;;3.17;1.88;;;24.50;68.90;;;;;;5044989;28;20032;-82
2022/06/03 09:16:48;;;;;;;1.80;1.58;;;24.50;68.90;;;;;;5046406;28;20090;-83
2022/06/03 09:19:39;;;;;;;1.73;1.63;;;24.60;68.50;;;;;;5045960;28;20021;-81
2022/06/03 09:22:13;;;;;;;2.10;2.00;;;25.00;67.40;;;;;;5046488;28;20021;-81
2022/06/03 09:24:41;;;;;;;2.78;1.67;;;25.20;66.70;;;;;;5043876;28;20021;-83
2022/06/03 09:27:10;;;;;;;2.08;1.80;;;25.30;66.50;;;;;;5025319;28;20025;-83
2022/06/03 09:29:38;;;;;;;4.40;2.30;;;25.30;65.20;;;;;;5043381;28;20029;-82
2022/06/03 09:32:08;;;;;;;2.40;2.00;;;25.40;64.70;;;;;;5044400;28;20017;-83
2022/06/03 09:34:48;;;;;;;1.77;1.67;;;25.30;65.30;;;;;;5022238;28;20046;-84
2022/06/03 09:37:35;;;;;;;2.15;1.92;;;25.30;65.60;;;;;;5037953;28;20022;-83
2022/06/03 09:40:05;;;;;;;2.10;1.98;;;25.50;65.40;;;;;;5050176;28;20029;-82
2022/06/03 09:42:33;;;;;;;7.15;2.58;;;25.60;64.60;;;;;;5043489;28;20129;-83
2022/06/03 09:45:03;;;;;;;3.70;2.05;;;25.70;63.60;;;;;;5023294;28;20393;-83
2022/06/03 09:47:30;;;;;;;2.03;1.83;;;25.90;64.10;;;;;;5022424;28;20021;-81
2022/06/03 09:49:56;;;;;;;3.10;1.90;;;26.00;64.00;;;;;;5039149;28;20029;-81
2022/06/03 09:52:27;;;;;;;2.55;2.05;;;26.00;63.40;;;;;;5039064;28;20018;-81
2022/06/03 09:54:55;;;;;;;2.10;1.90;;;26.10;62.60;;;;;;5039865;28;20033;-82
2022/06/03 09:57:30;;;;;;;3.88;1.80;;;26.20;61.40;;;;;;5023464;28;20097;-81
2022/06/03 10:00:21;;;;;;;2.00;1.90;;;26.40;61.20;;;;;;5050354;28;20112;-81
2022/06/03 10:02:47;;;;;;;1.90;1.80;;;26.50;60.80;;;;;;5050100;28;20044;-81
2022/06/03 10:05:17;;;;;;;2.28;2.08;;;26.50;61.60;;;;;;5056289;28;20029;-81
2022/06/03 10:07:45;;;;;;;11.13;2.08;;;26.60;61.10;;;;;;5060162;28;20036;-81
2022/06/03 10:13:00;;;;;;;2.20;2.00;;;26.60;61.70;;;;;;5069444;28;20503;-83
2022/06/03 10:15:42;;;;;;;1.95;1.65;;;26.70;61.70;;;;;;5054259;28;20059;-83
2022/06/03 10:18:32;;;;;;;2.38;1.92;;;26.90;61.10;;;;;;5073259;28;20021;-83
2022/06/03 10:21:19;;;;;;;2.15;1.95;;;27.10;60.70;;;;;;5047953;28;20059;-83
2022/06/03 10:23:51;;;;;;;2.70;2.20;;;27.10;61.50;;;;;;5045913;28;20285;-82
2022/06/03 10:26:21;;;;;;;;;;;27.10;61.40;;;;;;5060845;28;20035;-82
2022/06/03 10:28:50;;;;;;;3.08;2.28;;;27.10;61.50;;;;;;5062746;28;19935;-81
2022/06/03 10:31:26;;;;;;;4.15;2.38;;;27.00;62.00;;;;;;5060630;28;20024;-82
2022/06/03 10:33:57;;;;;;;4.50;3.03;;;27.00;61.80;;;;;;5044574;28;20110;-83
2022/06/03 10:36:28;;;;;;;2.92;2.55;;;27.00;62.00;;;;;;5050058;28;20063;-83
2022/06/03 10:38:54;;;;;;;2.60;2.40;;;27.10;61.00;;;;;;5044706;28;20025;-84
2022/06/03 10:41:29;;;;;;;3.80;2.22;;;27.10;61.70;;;;;;5023797;28;20093;-84
2022/06/03 10:43:55;;;;;;;2.63;2.40;;;27.30;61.60;;;;;;5023923;28;20040;-81
2022/06/03 10:46:20;;;;;;;2.88;2.53;;;27.40;61.20;;;;;;5010744;28;20045;-83
2022/06/03 10:48:47;;;;;;;4.70;2.72;;;27.60;60.30;;;;;;5031295;28;20267;-84
2022/06/03 10:51:19;;;;;;;4.72;2.80;;;27.60;60.40;;;;;;5025186;28;20030;-84
2022/06/03 11:02:47;;;;;;;3.55;2.20;;;28.20;58.90;;;;;;5043156;28;20052;-82
2022/06/03 11:05:28;;;;;;;3.78;2.22;;;28.20;58.90;;;;;;5028655;28;20034;-80
2022/06/03 11:07:59;;;;;;;2.10;2.00;;;28.00;59.40;;;;;;5034647;28;20021;-80
2022/06/03 11:10:31;;;;;;;3.40;2.63;;;27.70;60.10;;;;;;5059894;28;20029;-79
2022/06/03 11:13:01;;;;;;;3.80;2.17;;;27.70;60.40;;;;;;5018362;28;20034;-80
2022/06/03 11:15:31;;;;;;;2.40;2.17;;;28.00;59.70;;;;;;5002419;28;20060;-80
2022/06/03 11:18:00;;;;;;;3.30;2.15;;;28.20;58.50;;;;;;5019806;28;20049;-81
2022/06/03 11:20:34;;;;;;;3.65;2.40;;;28.60;57.60;;;;;;5003762;28;20510;-82
2022/06/03 11:23:02;;;;;;;2.50;2.30;;;28.80;57.10;;;;;;5003099;28;20034;-81
2022/06/03 11:25:30;;;;;;;3.65;2.10;;;28.90;56.90;;;;;;5020309;28;20018;-80
2022/06/03 11:28:05;;;;;;;2.17;2.08;;;28.90;57.00;;;;;;5003992;28;20022;-80
2022/06/03 11:30:48;;;;;;;2.35;2.15;;;29.00;57.50;;;;;;5029329;28;20053;-81
2022/06/03 11:33:55;;;;;;;3.70;2.50;;;29.00;57.50;;;;;;5028439;28;20018;-80
2022/06/03 11:36:38;;;;;;;2.47;2.17;;;29.10;56.70;;;;;;5034323;28;20053;-84
2022/06/03 11:39:04;;;;;;;4.15;2.30;;;29.00;57.30;;;;;;5026240;28;20090;-83
2022/06/03 11:41:44;;;;;;;5.72;2.35;;;29.10;56.90;;;;;;5008632;28;20124;-84
2022/06/03 11:44:17;;;;;;;4.07;2.28;;;29.00;55.80;;;;;;5025367;28;20029;-85
2022/06/03 11:46:53;;;;;;;4.60;2.55;;;29.00;56.50;;;;;;5014024;28;20470;-82
2022/06/03 11:49:21;;;;;;;2.22;2.08;;;29.00;56.10;;;;;;5045208;28;20025;-83
2022/06/03 11:51:48;;;;;;;2.30;2.10;;;29.00;55.60;;;;;;5026666;28;20029;-83
2022/06/03 11:54:17;;;;;;;2.33;2.10;;;29.00;55.80;;;;;;5026431;28;20021;-84
2022/06/03 11:56:45;;;;;;;2.13;1.83;;;29.30;55.70;;;;;;5044258;28;20018;-84
2022/06/03 11:59:23;;;;;;;4.13;2.63;;;29.50;54.90;;;;;;5044017;28;20014;-82
2022/06/03 12:01:49;;;;;;;4.32;2.65;;;29.60;54.60;;;;;;5026136;28;20120;-83
2022/06/03 12:04:34;;;;;;;2.75;2.40;;;29.70;54.10;;;;;;5025414;22;1205103;-84
2022/06/03 12:07:28;;;;;;;2.42;2.22;;;29.80;54.40;;;;;;5021506;28;20029;-81
2022/06/03 12:10:10;;;;;;;7.10;2.30;;;30.20;53.90;;;;;;5024432;28;20498;-80
2022/06/03 12:15:36;;;;;;;2.15;1.95;;;30.00;53.10;;;;;;5024896;28;20045;-83
2022/06/03 12:18:09;;;;;;;5.65;2.58;;;29.70;53.80;;;;;;5025324;28;20026;-81
2022/06/03 12:20:41;;;;;;;4.30;2.70;;;29.70;54.20;;;;;;5026151;28;20080;-80
2022/06/03 12:23:12;;;;;;;4.03;2.50;;;29.80;54.20;;;;;;5043123;28;20021;-82
2022/06/03 12:25:38;;;;;;;5.32;3.08;;;29.70;54.60;;;;;;5049981;28;20025;-82
2022/06/03 12:28:05;;;;;;;4.30;2.33;;;29.70;55.50;;;;;;5056160;28;20049;-80
2022/06/03 12:30:42;;;;;;;3.05;2.83;;;29.70;56.00;;;;;;5043735;28;20037;-82
2022/06/03 12:33:33;;;;;;;4.28;2.53;;;29.60;56.50;;;;;;5043679;28;20029;-80
2022/06/03 12:36:05;;;;;;;4.30;2.30;;;29.50;57.00;;;;;;5055310;28;20092;-83
2022/06/03 12:38:40;;;;;;;3.55;2.55;;;29.40;57.30;;;;;;5037378;28;20021;-80
2022/06/03 12:41:07;;;;;;;5.03;2.17;;;29.30;57.80;;;;;;5052801;28;20048;-81
2022/06/03 12:43:56;;;;;;;2.40;2.30;;;29.40;58.00;;;;;;5049674;28;20047;-81
2022/06/03 12:46:43;;;;;;;2.47;2.20;;;29.50;57.80;;;;;;5050540;28;20029;-81
2022/06/03 12:49:32;;;;;;;5.75;2.63;;;29.40;56.90;;;;;;5027630;28;20055;-81
2022/06/03 12:52:08;;;;;;;8.85;3.10;;;29.20;57.70;;;;;;5028860;28;20113;-81
2022/06/03 12:54:46;;;;;;;3.00;2.28;;;29.10;58.70;;;;;;5042371;28;20497;-82
2022/06/03 12:57:38;;;;;;;3.42;2.47;;;28.90;59.00;;;;;;5043887;28;20017;-81
2022/06/03 13:00:07;;;;;;;2.97;2.60;;;28.90;59.70;;;;;;5044790;28;20118;-80
2022/06/03 13:02:48;;;;;;;3.42;2.38;;;28.70;59.80;;;;;;5043562;28;20203;-81
2022/06/03 13:05:34;;;;;;;3.88;2.22;;;28.70;59.80;;;;;;5043381;28;20029;-82
2022/06/03 13:08:28;;;;;;;4.53;2.92;;;28.50;60.10;;;;;;5051119;28;20032;-82
2022/06/03 13:11:15;;;;;;;5.75;2.33;;;28.30;60.70;;;;;;5036860;28;20041;-82
2022/06/03 13:13:47;;;;;;;6.03;2.70;;;28.30;61.00;;;;;;5042454;28;20030;-81
2022/06/03 13:16:21;;;;;;;4.65;2.80;;;28.30;60.90;;;;;;5024070;28;20017;-81
2022/06/03 13:18:50;;;;;;;2.90;2.58;;;28.20;61.20;;;;;;5023036;28;20021;-80
2022/06/03 13:21:29;;;;;;;2.53;2.38;;;28.20;61.40;;;;;;5021792;28;20062;-80
2022/06/03 13:24:20;;;;;;;2.83;2.30;;;28.10;61.70;;;;;;5037171;28;20470;-81
2022/06/03 13:26:49;;;;;;;3.90;2.30;;;28.20;61.80;;;;;;5020217;28;20029;-82
2022/06/03 13:29:47;;;;;;;3.53;3.00;;;28.10;61.90;;;;;;5040913;28;20029;-81
2022/06/03 13:32:34;;;;;;;3.72;2.60;;;28.00;62.40;;;;;;5042230;28;20090;-81
2022/06/03 13:35:21;;;;;;;4.22;3.30;;;27.90;62.70;;;;;;5018776;28;20029;-81
2022/06/03 13:37:49;;;;;;;3.78;2.92;;;27.80;62.40;;;;;;5009816;28;20069;-80
2022/06/03 13:40:24;;;;;;;5.57;2.63;;;27.60;62.60;;;;;;5055938;28;20025;-81
2022/06/03 13:43:02;;;;;;;3.83;2.85;;;27.40;63.20;;;;;;5020487;28;20025;-81
2022/06/03 13:45:46;;;;;;;3.58;2.92;;;27.40;63.70;;;;;;5020078;28;20092;-81
2022/06/03 13:48:31;;;;;;;5.43;2.67;;;27.30;64.30;;;;;;5045360;28;20034;-80
2022/06/03 13:51:17;;;;;;;4.93;3.35;;;27.20;65.20;;;;;;5040706;28;20066;-81
2022/06/03 13:53:50;;;;;;;6.40;3.13;;;27.10;65.70;;;;;;5045718;28;20022;-81
2022/06/03 13:56:22;;;;;;;6.03;2.92;;;26.90;65.90;;;;;;5045888;28;20025;-82
2022/06/03 13:58:48;;;;;;;4.13;2.80;;;26.70;66.60;;;;;;5027611;28;20025;-82
2022/06/03 14:01:52;;;;;;;7.40;2.78;;;26.60;67.10;;;;;;5043923;28;20094;-81
2022/06/03 14:04:22;;;;;;;3.95;2.92;;;26.60;67.20;;;;;;4944019;29;20443;-80
2022/06/03 14:07:22;;;;;;;6.68;3.03;;;26.70;67.10;;;;;;5035471;28;20049;-81
2022/06/03 14:09:53;;;;;;;4.68;2.42;;;26.70;66.40;;;;;;5049578;28;20087;-82
2022/06/03 14:12:36;;;;;;;5.53;2.70;;;26.70;66.40;;;;;;5048362;28;20159;-82
2022/06/03 14:15:31;;;;;;;2.72;2.30;;;26.60;66.40;;;;;;5039766;28;20022;-80
2022/06/03 14:17:59;;;;;;;5.00;2.53;;;26.60;66.40;;;;;;5040653;28;20018;-82
2022/06/03 14:20:27;;;;;;;3.63;2.35;;;26.50;66.20;;;;;;5041661;28;20033;-82
2022/06/03 14:23:13;;;;;;;5.43;2.47;;;26.50;66.40;;;;;;5042292;28;20025;-82
2022/06/03 14:25:51;;;;;;;5.03;2.45;;;26.50;66.70;;;;;;5018895;28;20026;-82
2022/06/03 14:28:35;;;;;;;2.35;2.17;;;26.40;66.20;;;;;;5048193;28;20079;-82
2022/06/03 14:31:34;;;;;;;3.15;2.13;;;26.30;66.10;;;;;;5045731;28;20035;-80
2022/06/03 14:34:13;;;;;;;3.40;2.17;;;26.30;66.90;;;;;;5038169;28;20029;-81